Logo AVAMET
Benvolgut visitant, si us plau, ingressa Recuperar contrasenya

Inforatge Xeraco centre

Dades diàries. Acumulats / Últims 30 dies disponibles

Data Temperatura (°C) Humitat rel. (%) Pressió rel. (hPa) Vent (km/h) Precipitació
Mínima Mitjana Màxima Amplitud
tèrmica
Mínima Mitjana Màxima Mínima Mitjana Màxima Predom. Mitjana Ràfega
màxima
Total
(mm)
Índex-n
Mínima Mitjana Màxima Mínima Mitjana Màxima n
0 a 1
P0 max
mm 5'
Dades mensuals acumulades fins l'últim dia disponible
01/2020 3,8 7,6 10,6 11,3 12,4 15,2 19,6 15,8 37 78 99 1.013 1.027 1.035   5,5 88,5 134,0
Dades anuals acumulades fins l'últim dia disponible
2020 3,8 7,6 10,6 11,3 12,4 15,2 19,6 15,8 37 78 99 1.013 1.027 1.035   5,5 88,5 134,0
Últims 30 dies disponibles
24-01-2020 8,8     11,6     13,7 4,9 84 91 96 1.022 1.023 1.025 NW 2,4 16,1 0,0
23-01-2020 6,8     10,0     12,6 5,8 80 88 95 1.020 1.022 1.024 W 1,3 9,7 0,0
22-01-2020 8,6     10,8     14,1 5,5 75 88 96 1.018 1.020 1.021 W 3,2 25,7 8,6 0,86 6,20
21-01-2020 9,0     11,8     14,9 5,9 83 93 99 1.013 1.016 1.021 NNE 11,1 78,9 29,4 0,49 3,20
20-01-2020 6,3     9,1     12,4 6,1 89 97 99 1.018 1.020 1.022 NNE 30,1 88,5 48,4 0,43 1,60
19-01-2020 7,6     10,3     14,3 6,7 70 82 97 1.016 1.018 1.022 NNE 21,1 83,7 43,8 0,96 7,20
18-01-2020 9,8     14,8     19,2 9,4 47 60 78 1.021 1.028 1.033 W 4,0 29,0 0,0
17-01-2020 9,8     15,2     18,9 9,1 38 54 87 1.028 1.030 1.033 WNW 9,0 53,1 0,0
16-01-2020 9,8     14,0     17,7 7,9 54 68 86 1.027 1.028 1.030 W 3,2 30,6 0,0
15-01-2020 10,6     14,8     19,6 9,0 42 54 65 1.024 1.026 1.028 W 10,3 41,8 0,0
14-01-2020 9,3     12,5     16,2 6,9 40 54 72 1.022 1.023 1.025 ESE 3,7 24,1 0,0
13-01-2020 3,8     10,3     16,2 12,4 37 63 87 1.023 1.026 1.031 W 1,4 16,1 0,0
12-01-2020 4,9     9,3     14,6 9,7 43 74 88 1.030 1.031 1.032 W 3,2 19,3 0,0
11-01-2020 6,9     11,0     14,6 7,7 61 72 86 1.029 1.031 1.033 W 2,4 14,5 0,0
10-01-2020 7,9     11,4     15,6 7,7 57 78 92 1.024 1.026 1.030 NNE 6,6 51,5 3,4 0,19 0,40
09-01-2020 8,2     11,2     14,9 6,7 69 84 92 1.025 1.029 1.032 W 2,9 17,7 0,0
08-01-2020 6,1     10,3     15,0 8,9 70 84 91 1.029 1.031 1.033 W 2,3 19,3 0,0
07-01-2020 6,6     10,3     15,1 8,5 71 86 94 1.029 1.031 1.033 W 2,6 17,7 0,0
06-01-2020 8,8     11,6     14,9 6,1 69 82 90 1.029 1.030 1.032 W 2,6 16,1 0,0
05-01-2020 6,6     10,5     15,2 8,6 65 76 85 1.028 1.030 1.033 W 1,6 14,5 0,0
04-01-2020 7,2     10,9     15,4 8,2 58 77 91 1.032 1.034 1.035 W 1,6 12,9 0,0
03-01-2020 5,9     10,1     13,4 7,5 80 87 94 1.031 1.032 1.034 W 2,4 14,5 0,2
02-01-2020 6,8     9,7     13,3 6,5 78 88 94 1.031 1.033 1.035 W 1,8 11,3 0,0
01-01-2020 6,1     10,0     13,8 7,7 74 85 94 1.032 1.033 1.035 W 1,9 11,3 0,2
31-12-2019 6,1     10,0     14,3 8,2 72 86 93 1.033 1.034 1.036 SSO 1,5 17,7 0,0
30-12-2019 9,9     11,6     14,6 4,7 73 82 89 1.033 1.034 1.036 W 2,1 19,3 0,0
29-12-2019 9,3     11,5     14,4 5,1 70 83 92 1.032 1.033 1.035 W 2,7 14,5 0,0
28-12-2019 7,6     11,3     15,3 7,7 72 87 95 1.030 1.031 1.033 W 2,7 16,1 0,0
27-12-2019 9,6     12,8     16,8 7,2 68 81 92 1.028 1.030 1.032 W 1,6 12,9 0,0
26-12-2019 11,6     16,2     25,2 13,6 28 64 90 1.023 1.026 1.031 W 3,1 25,7 0,0
Últims 13 mesos disponibles
12/2019 6,1 12,0 20,2 15,0 14,0 18,5 26,3 20,2 47 69 91 1.003 1.020 1.034 W 10,0 95,0 214,0
11/2019 8,7 13,5 22,7 16,7 15,6 20,4 27,9 19,2 43 55 75 1.000 1.012 1.019 W 12,2 72,4 12,4
10/2019 13,5 17,4 21,4 21,2 17,1 25,0 32,9 19,4 41 66 85 1.009 1.017 1.023 W 5,0 59,5 44,6
09/2019 15,3 21,0 24,3 24,4 23,3 27,6 35,3 20,0 42 74 90 1.011 1.019 1.025 S 6,2 77,8 58,6
08/2019 19,2 23,7 27,3 26,8 24,9 30,4 37,1 17,9 53 74 82 1.011 1.016 1.021 SSE 5,6 55,6 5,2
07/2019 21,3 23,9 26,4 27,0 27,1 30,6 39,2 17,9 43 70 82 1.006 1.015 1.022 SSE 6,3 56,3 0,2
06/2019 14,6 18,9 22,7 22,8 20,3 26,8 33,0 18,4 37 68 84 1.009 1.016 1.023 SSE 6,4 50,0 0,2
05/2019 11,2 15,6 23,2 19,2 17,9 23,5 31,8 20,6 47 68 82 1.006 1.016 1.025 SSE 6,2 56,3 9,0
04/2019 10,0 12,7 15,2 15,9 13,9 19,2 29,2 19,2 37 68 94 1.002 1.014 1.026 SSE 9,1 61,1 216,6
03/2019 8,3 10,8 15,9 15,3 12,1 19,4 28,3 20,0 30 60 90 1.012 1.024 1.031 S 5,8 64,8 35,8
02/2019 6,6 8,9 12,3 13,0 13,3 17,2 22,4 15,8 33 65 83 996 1.026 1.035 S 5,5 79,6 0,0
01/2019 4,2 8,9 14,2 12,7 11,6 16,7 20,9 16,7 40 57 84 1.003 1.020 1.032 SSO 7,4 80,6 1,2
12/2018 6,3 10,7 15,9 14,5 14,2 18,7 24,6 18,3 47 67 88 1.010 1.026 1.032 SSO 5,6 63,0 24,0
Tots els anys disponibles
2019 4,2 15,6 27,3 19,2 11,6 22,9 39,2 35,0 30 66 94 996 1.018 1.035 SSE 7,2 95,0 597,8
2018 4,6 15,8 27,7 19,0 8,4 22,6 37,1 32,5 35 67 95 994 1.017 1.036 SSE 6,5 76,0 924,6
2017 1,4 16,3 26,9 19,8 9,6 23,3 39,0 37,6 33 68 93 1.002 1.017 1.038 SE 0,0 97,0 399,0
2016 4,8 16,0 25,6 19,4 12,4 22,8 39,6 34,8 29 66 93 993 1.017 1.036 93,0 543,9
Temperatura (°C)
Humitat relativa (%)
Velocitat del vent i ràfega màxima (km/h)
Direcció del vent (°)
Pressió (hPa)
Precipitació (mm)
Nota sobre les dades: s'avisa a l'usuari de la provisionalitat i no oficialitat d'aquestes dades
Logo AVAMET blanc
Web allotjada a Sollutia
Llicència de Creative CommonsLa web d'AVAMET i els seus continguts estan subjectes a una llicència de
Reconeixement - No Comercial - Compartir igual
Últimes estacions: Xixona - Els Ameradors (Soci), Agres - El Tossal (Soci), Xàbia - Bevenguts (MeteoXàbia), Llíria (Aj. Soci/Inforatge), Orihuela - Lo Capitán, Cox & Guardamar del Segura - horta (Meteorihuela), l'Alcúdia - Carriona & el Real de Gandia (Inforatge), Benicàssim - les Vil·les (Soci),  l'Alfàs del Pi - l'Albir (Soci), - - -